Latest Coastal Weather Observations for Double Island Point

IDQ60701

Issued at 11:32 am EST Tuesday 27 September 2022 (issued every 10 minutes, with the page automatically refreshed every 10 minutes)

About coastal observations | Map of coastal stations | Coastal observations for QLD | Marine services | Other Formats
Station Details ID: 040068 Name: DOUBLE ISLAND POINT LIGHTHOUSE Lat: -25.93 Lon: 153.19 Height: 95.64 m
Data from the previous 72 hours. | See also: Recent months at Double Island Point
Date/Time
EST
Wind Sea
Height
m
Swell Vis
km
Cloud Weather Temp
°C
Press
MSL
hPa
Rain since
9am
mm
Dir  Spd
kts
Gust
kts
Height
m
Period
s
Dir
27/11:30am NNE 12 19 - - - - - - - 24.3 1014.8 0.0
27/11:00am N 7 15 - - - - - - - 24.2 1015.4 0.0
27/10:30am N 8 19 - - - - - - - 23.6 1015.3 0.0
27/10:00am CALM 0 4 - - - - - - - 24.7 1016.1 0.0
27/09:30am CALM 0 2 - - - - - - - 24.6 1016.4 0.0
27/09:00am CALM 0 2 - - - - - - - 23.8 1016.5 0.0
27/08:30am CALM 0 5 - - - - - - - 23.6 1016.7 0.0
27/08:00am CALM 0 1 - - - - - - - 22.8 1016.5 0.0
27/07:30am CALM 0 3 - - - - - - - 21.2 1016.5 0.0
27/07:00am CALM 0 4 - - - - - - - 21.0 1016.2 0.0
27/06:30am CALM 0 3 - - - - - - - 20.2 1016.0 0.0
27/06:00am CALM 0 1 - - - - - - - 19.9 1015.4 0.0
27/05:30am CALM 0 0 - - - - - - - 19.5 1015.1 0.0
27/05:00am N 5 10 - - - - - - - 19.6 1014.9 0.0
27/04:30am N 1 7 - - - - - - - 19.8 1014.6 0.0
27/04:00am N 3 9 - - - - - - - 19.9 1014.4 0.0
27/03:30am N 5 18 - - - - - - - 20.1 1014.1 0.0
27/03:00am NNW 3 9 - - - - - - - 20.3 1013.6 0.0
27/02:30am N 3 12 - - - - - - - 20.3 1014.2 0.0
27/02:00am NNW 1 7 - - - - - - - 20.3 1014.2 0.0
27/01:30am N 5 14 - - - - - - - 20.5 1014.4 0.0
27/01:00am NNW 3 13 - - - - - - - 20.5 1014.8 0.0
27/12:30am N 11 18 - - - - - - - 20.5 1015.0 0.0
27/12:00am NNE 10 17 - - - - - - - 20.6 1015.5 0.0
 
Date/Time
EST
Wind Sea
Height
m
Swell Vis
km
Cloud Weather Temp
°C
Press
MSL
hPa
Rain since
9am
mm
Dir  Spd
kts
Gust
kts
Height
m
Period
s
Dir
26/11:30pm NNW 2 12 - - - - - - - 20.5 1015.8 0.0
26/11:00pm NNE 12 18 - - - - - - - 20.6 1015.6 0.0
26/10:30pm N 9 19 - - - - - - - 20.7 1015.7 0.0
26/10:00pm NNE 12 19 - - - - - - - 20.7 1015.5 0.0
26/09:30pm N 7 18 - - - - - - - 20.7 1015.8 0.0
26/09:00pm N 11 21 - - - - - - - 20.9 1015.7 0.0
26/08:30pm N 8 21 - - - - - - - 20.9 1015.7 0.0
26/08:00pm NNE 16 23 - - - - - - - 20.9 1015.4 0.0
26/07:30pm NNE 16 24 - - - - - - - 21.0 1015.0 0.0
26/07:00pm NNE 17 24 - - - - - - - 21.0 1014.8 0.0
26/06:30pm NNE 18 24 - - - - - - - 21.0 1014.5 0.0
26/06:00pm NNE 17 23 - - - - - - - 21.1 1014.3 0.0
26/05:30pm NNE 18 22 - - - - - - - 21.4 1014.2 0.0
26/05:00pm NNE 17 20 - - - - - - - 22.3 1013.9 0.0
26/04:30pm NNE 16 19 - - - - - - - 22.7 1013.6 0.0
26/04:00pm NNE 15 19 - - - - - - - 23.3 1013.5 0.0
26/03:30pm NNE 14 17 - - - - - - - 24.0 1013.7 0.0
26/03:00pm NNE 12 15 - - - - - - - 24.6 1013.7 0.0
26/02:30pm NNE 8 12 - - - - - - - 25.5 1013.8 0.0
26/02:00pm NE 6 12 - - - - - - - 26.2 1014.3 0.0
26/01:30pm NE 3 8 - - - - - - - 26.7 1014.6 0.0
26/01:00pm NE 6 9 - - - - - - - 26.3 1015.1 0.0
26/12:30pm NE 1 6 - - - - - - - 27.0 1015.4 0.0
26/12:00pm NE 3 7 - - - - - - - 26.9 1016.0 0.0
26/11:30am NE 2 6 - - - - - - - 26.5 1016.5 0.0
26/11:00am CALM 0 3 - - - - - - - 26.0 1016.9 0.0
26/10:30am ENE 1 5 - - - - - - - 24.9 1017.2 0.0
26/10:00am CALM 0 3 - - - - - - - 24.0 1017.4 0.0
26/09:30am CALM 0 1 - - - - - - - 23.5 1017.7 0.0
26/09:00am CALM 0 0 - - - - - - - 22.6 1017.5 0.0
26/08:30am CALM 0 1 - - - - - - - 23.0 1017.5 0.0
26/08:00am CALM 0 1 - - - - - - - 22.4 1017.4 0.0
26/07:30am CALM 0 0 - - - - - - - 21.9 1017.3 0.0
26/07:00am CALM 0 0 - - - - - - - 20.9 1017.1 0.0
26/06:30am CALM 0 0 - - - - - - - 19.7 1016.8 0.0
26/06:00am CALM 0 0 - - - - - - - 19.0 1016.6 0.0
26/05:30am CALM 0 0 - - - - - - - 18.9 1016.6 0.0
26/05:00am CALM 0 0 - - - - - - - 18.9 1016.5 0.0
26/04:30am CALM 0 0 - - - - - - - 18.5 1016.3 0.0
26/04:00am CALM 0 0 - - - - - - - 18.5 1016.1 0.0
26/03:30am CALM 0 0 - - - - - - - 18.7 1016.1 0.0
26/03:00am CALM 0 1 - - - - - - - 18.9 1016.1 0.0
26/02:30am CALM 0 0 - - - - - - - 18.9 1016.0 0.0
26/02:00am CALM 0 0 - - - - - - - 18.9 1015.9 0.0
26/01:30am CALM 0 0 - - - - - - - 18.9 1016.2 0.0
26/01:00am N 1 6 - - - - - - - 18.7 1016.4 0.0
26/12:30am N 4 6 - - - - - - - 19.0 1016.6 0.0
26/12:00am N 3 6 - - - - - - - 19.0 1016.9 0.0
 
Date/Time
EST
Wind Sea
Height
m
Swell Vis
km
Cloud Weather Temp
°C
Press
MSL
hPa
Rain since
9am
mm
Dir  Spd
kts
Gust
kts
Height
m
Period
s
Dir
25/11:30pm CALM 0 0 - - - - - - - 18.7 1016.9 0.0
25/11:00pm CALM 0 0 - - - - - - - 18.8 1016.8 0.0
25/10:30pm CALM 0 0 - - - - - - - 19.2 1016.6 0.0
25/10:00pm NNE 1 5 - - - - - - - 19.0 1016.5 0.0
25/09:30pm CALM 0 3 - - - - - - - 19.1 1016.6 0.0
25/09:00pm CALM 0 3 - - - - - - - 19.3 1016.7 0.0
25/08:30pm NE 1 6 - - - - - - - 19.5 1016.6 0.0
25/08:00pm ENE 6 9 - - - - - - - 19.9 1016.4 0.0
25/07:30pm E 11 14 - - - - - - - 20.0 1015.9 0.0
25/07:00pm ESE 11 13 - - - - - - - 20.0 1015.4 0.0
25/06:30pm ESE 13 15 - - - - - - - 20.1 1015.1 0.0
25/06:00pm ESE 13 15 - - - - - - - 20.1 1014.7 0.0
25/05:30pm ESE 11 14 - - - - - - - 20.5 1014.2 0.0
25/05:00pm ESE 12 14 - - - - - - - 20.7 1013.8 0.0
25/04:30pm ESE 11 12 - - - - - - - 21.0 1013.7 0.0
25/04:00pm ESE 13 15 - - - - - - - 21.4 1013.4 0.0
25/03:30pm ESE 13 15 - - - - - - - 21.7 1013.2 0.0
25/03:00pm ESE 13 15 - - - - - - - 22.3 1013.2 0.0
25/02:30pm SE 12 15 - - - - - - - 22.6 1013.5 0.0
25/02:00pm ESE 12 14 - - - - - - - 22.9 1013.6 0.0
25/01:30pm SE 10 12 - - - - - - - 23.4 1013.9 0.0
25/01:00pm SSE 12 14 - - - - - - - 23.6 1014.4 0.0
25/12:30pm SSE 13 17 - - - - - - - 23.6 1014.7 0.0
25/12:00pm SSE 13 16 - - - - - - - 23.4 1015.1 0.0
25/11:30am SSE 12 17 - - - - - - - 23.2 1015.4 0.0
25/11:00am SSE 11 16 - - - - - - - 23.3 1015.8 0.0
25/10:30am SSE 11 14 - - - - - - - 23.4 1016.1 0.0
25/10:00am S 11 14 - - - - - - - 23.3 1016.1 0.0
25/09:30am S 13 18 - - - - - - - 22.5 1016.1 0.0
25/09:00am SSW 15 21 - - - - - - - 22.5 1015.8 0.0
25/08:30am SSW 15 19 - - - - - - - 22.2 1015.8 0.0
25/08:00am SSW 16 20 - - - - - - - 21.6 1015.7 0.0
25/07:30am SW 17 22 - - - - - - - 21.4 1015.5 0.0
25/07:00am SW 19 24 - - - - - - - 21.0 1015.0 0.0
25/06:30am SSW 19 25 - - - - - - - 20.5 1014.7 0.0
25/06:00am S 14 18 - - - - - - - 19.4 1014.4 0.0
25/05:30am SSW 17 19 - - - - - - - 19.5 1014.1 0.0
25/05:00am SSW 16 19 - - - - - - - 19.3 1013.8 0.0
25/04:30am SW 17 22 - - - - - - - 19.6 1013.5 0.0
25/04:00am S 9 14 - - - - - - - 18.9 1013.4 0.0
25/03:30am SSW 12 17 - - - - - - - 19.5 1013.2 0.0
25/03:00am SW 17 23 - - - - - - - 20.6 1013.0 0.0
25/02:30am SW 18 25 - - - - - - - 20.9 1013.1 0.0
25/02:00am SW 16 22 - - - - - - - 20.8 1013.2 0.0
25/01:30am WSW 16 20 - - - - - - - 20.9 1013.2 0.0
25/01:00am WSW 16 20 - - - - - - - 21.2 1013.4 0.0
25/12:30am WSW 15 19 - - - - - - - 21.2 1013.7 0.0
25/12:00am WSW 15 19 - - - - - - - 21.3 1013.7 0.0
 
Date/Time
EST
Wind Sea
Height
m
Swell Vis
km
Cloud Weather Temp
°C
Press
MSL
hPa
Rain since
9am
mm
Dir  Spd
kts
Gust
kts
Height
m
Period
s
Dir
24/11:30pm WSW 15 19 - - - - - - - 21.7 1013.8 0.0
24/11:00pm WSW 12 17 - - - - - - - 22.3 1013.7 0.0
24/10:30pm WSW 12 16 - - - - - - - 22.3 1013.7 0.0
24/10:00pm WSW 10 15 - - - - - - - 22.4 1013.5 0.0
24/09:30pm W 10 15 - - - - - - - 22.0 1013.3 0.0
24/09:00pm NW 9 12 - - - - - - - 20.7 1013.1 0.0
24/08:30pm NNW 8 10 - - - - - - - 20.5 1012.9 0.0
24/08:00pm NNW 3 6 - - - - - - - 20.5 1012.5 0.0
24/07:30pm CALM 0 3 - - - - - - - 20.3 1012.2 0.0
24/07:00pm NNW 1 8 - - - - - - - 20.3 1011.5 0.0
24/06:30pm CALM 0 6 - - - - - - - 20.7 1011.2 0.0
24/06:00pm CALM 0 3 - - - - - - - 21.1 1010.7 0.0
24/05:30pm NNE 8 13 - - - - - - - 21.8 1010.3 0.0
24/05:00pm N 2 11 - - - - - - - 22.7 1010.0 0.0
24/04:30pm NNE 1 6 - - - - - - - 24.0 1009.7 0.0
24/04:00pm CALM 0 4 - - - - - - - 24.5 1009.5 0.0
24/03:30pm NE 1 7 - - - - - - - 23.7 1009.5 0.0
24/03:00pm ENE 8 11 - - - - - - - 23.2 1009.4 0.0
24/02:30pm E 7 10 - - - - - - - 24.2 1009.5 0.0
24/02:00pm E 8 11 - - - - - - - 23.2 1009.8 0.0
24/01:30pm ENE 7 13 - - - - - - - 24.4 1010.1 0.0
24/01:00pm ENE 8 11 - - - - - - - 23.8 1010.5 0.0
24/12:30pm NE 3 7 - - - - - - - 26.1 1010.7 0.0
24/12:00pm ENE 6 7 - - - - - - - 25.0 1011.1 0.0

Other formats

Comma delimited format used in spreadsheet applications
http://www.bom.gov.au/fwo/IDQ60701/IDQ60701.94584.axf

JavaScript Object Notation format (JSON) in row-major order
http://www.bom.gov.au/fwo/IDQ60701/IDQ60701.94584.json

Data quality

Most of these data are generated automatically and are frequently updated. Quality checks on data are not normally performed. It is possible for incorrect values to appear. Refer to information at About Latest Weather Observations and please check the disclaimer before using these data.